createdAt,value
2023-09-02T00:01:10.271Z,15.8
2023-09-02T00:02:26.696Z,15.7
2023-09-02T00:03:42.974Z,15.8
2023-09-02T00:04:59.278Z,15.8
2023-09-02T00:06:15.574Z,15.7
2023-09-02T00:07:31.871Z,15.7
2023-09-02T00:08:48.150Z,15.7
2023-09-02T00:10:04.468Z,15.7
2023-09-02T00:11:20.751Z,15.7
2023-09-02T00:12:37.047Z,15.7
2023-09-02T00:13:53.337Z,15.7
2023-09-02T00:15:09.629Z,15.7
2023-09-02T00:16:25.919Z,15.8
2023-09-02T00:17:42.212Z,15.7
2023-09-02T00:18:58.644Z,15.7
2023-09-02T00:20:14.933Z,15.8
2023-09-02T00:21:31.229Z,15.8
2023-09-02T00:22:47.520Z,15.7
2023-09-02T00:24:03.797Z,15.8
2023-09-02T00:25:20.120Z,15.7
2023-09-02T00:26:36.402Z,15.8
2023-09-02T00:27:52.682Z,15.7
2023-09-02T00:29:09.001Z,15.7
2023-09-02T00:30:25.289Z,15.7
2023-09-02T00:31:41.571Z,15.7
2023-09-02T00:32:57.870Z,15.8
2023-09-02T00:34:14.164Z,15.7
2023-09-02T00:35:29.473Z,15.7
2023-09-02T00:36:45.764Z,15.7
2023-09-02T00:38:02.076Z,15.7
2023-09-02T00:39:18.344Z,15.7
2023-09-02T00:40:34.652Z,15.7
2023-09-02T00:41:50.949Z,15.6
2023-09-02T00:43:07.222Z,15.6
2023-09-02T00:44:23.523Z,15.6
2023-09-02T00:45:39.816Z,15.5
2023-09-02T00:46:56.114Z,15.5
2023-09-02T00:48:12.414Z,15.4
2023-09-02T00:49:28.693Z,15.4
2023-09-02T00:50:45.005Z,15.4
2023-09-02T00:52:00.302Z,15.3
2023-09-02T00:53:16.606Z,15.3
2023-09-02T00:54:32.892Z,15.3
2023-09-02T00:55:49.202Z,15.4
2023-09-02T00:57:05.476Z,15.3
2023-09-02T00:58:21.791Z,15.3
2023-09-02T00:59:38.085Z,15.3
2023-09-02T01:00:54.356Z,15.2
2023-09-02T01:02:10.667Z,15.2
2023-09-02T01:03:26.967Z,15.2
2023-09-02T01:04:43.253Z,15.2
2023-09-02T01:05:59.531Z,15.2
2023-09-02T01:07:15.840Z,15.2
2023-09-02T01:08:32.260Z,15.2
2023-09-02T01:11:04.851Z,15.2
2023-09-02T01:12:21.124Z,15.2
2023-09-02T01:13:37.443Z,15.2
2023-09-02T01:14:53.740Z,15.2
2023-09-02T01:16:10.007Z,15.2
2023-09-02T01:17:26.308Z,15.2
2023-09-02T01:18:42.605Z,15.2
2023-09-02T01:19:58.890Z,15.2
2023-09-02T01:21:15.206Z,15.3
2023-09-02T01:22:31.494Z,15.3
2023-09-02T01:23:47.780Z,15.2
2023-09-02T01:25:04.194Z,15.3
2023-09-02T01:26:20.498Z,15.3
2023-09-02T01:27:36.784Z,15.3
2023-09-02T01:28:53.074Z,15.3
2023-09-02T01:30:09.362Z,15.3
2023-09-02T01:31:25.685Z,15.3
2023-09-02T01:32:41.970Z,15.3
2023-09-02T01:33:58.279Z,15.2
2023-09-02T01:35:14.558Z,15.3
2023-09-02T01:36:30.849Z,15.3
2023-09-02T01:37:47.134Z,15.3
2023-09-02T01:39:03.424Z,15.2
2023-09-02T01:40:19.717Z,15.2
2023-09-02T01:41:36.138Z,15.2
2023-09-02T01:42:52.434Z,15.2
2023-09-02T01:44:08.729Z,15.2
2023-09-02T01:45:25.017Z,15.2
2023-09-02T01:46:41.311Z,15.2
2023-09-02T01:47:57.614Z,15.2
2023-09-02T01:49:13.901Z,15.2
2023-09-02T01:50:30.190Z,15.2
2023-09-02T01:51:46.485Z,15.2
2023-09-02T01:53:02.780Z,15.2
2023-09-02T01:54:19.103Z,15.1
2023-09-02T01:56:51.665Z,15.2
2023-09-02T01:58:06.989Z,15.1
2023-09-02T01:59:23.279Z,15
2023-09-02T02:00:39.581Z,15
2023-09-02T02:01:55.867Z,15
2023-09-02T02:03:12.162Z,15
2023-09-02T02:04:28.454Z,15
2023-09-02T02:05:44.752Z,15
2023-09-02T02:07:01.047Z,15
2023-09-02T02:08:17.341Z,14.9
2023-09-02T02:09:33.635Z,15
2023-09-02T02:10:49.910Z,14.9
2023-09-02T02:12:06.217Z,14.9
2023-09-02T02:13:22.527Z,14.9
2023-09-02T02:14:38.914Z,14.9
2023-09-02T02:15:55.219Z,14.9
2023-09-02T02:17:11.531Z,14.9
2023-09-02T02:18:27.822Z,14.9
2023-09-02T02:19:44.107Z,14.9
2023-09-02T02:21:00.388Z,14.9
2023-09-02T02:22:16.695Z,14.9
2023-09-02T02:23:32.982Z,14.9
2023-09-02T02:24:49.271Z,14.9
2023-09-02T02:27:21.872Z,15
2023-09-02T02:28:38.151Z,15
2023-09-02T02:29:54.444Z,15.1
2023-09-02T02:31:09.753Z,15.1
2023-09-02T02:32:26.073Z,15.1
2023-09-02T02:33:42.339Z,15.2
2023-09-02T02:34:58.655Z,15.2
2023-09-02T02:36:14.944Z,15.2
2023-09-02T02:37:31.243Z,15.2
2023-09-02T02:38:47.517Z,15.2
2023-09-02T02:40:03.826Z,15.2
2023-09-02T02:41:20.106Z,15.2
2023-09-02T02:42:36.415Z,15.2
2023-09-02T02:43:52.698Z,15.2
2023-09-02T02:45:08.988Z,15.3
2023-09-02T02:46:25.280Z,15.3
2023-09-02T02:47:40.615Z,15.3
2023-09-02T02:48:56.894Z,15.2
2023-09-02T02:50:13.209Z,15.3
2023-09-02T02:51:29.470Z,15.2
2023-09-02T02:52:45.784Z,15.3
2023-09-02T02:54:02.061Z,15.2
2023-09-02T02:55:18.359Z,15.3
2023-09-02T02:56:34.650Z,15.3
2023-09-02T02:57:50.945Z,15.2
2023-09-02T02:59:07.233Z,15.3
2023-09-02T03:00:23.530Z,15.3
2023-09-02T03:01:39.827Z,15.2
2023-09-02T03:02:56.117Z,15.3
2023-09-02T03:04:11.430Z,15.3
2023-09-02T03:05:27.738Z,15.3
2023-09-02T03:06:44.032Z,15.3
2023-09-02T03:08:00.308Z,15.3
2023-09-02T03:09:16.608Z,15.3
2023-09-02T03:10:32.920Z,15.3
2023-09-02T03:11:49.193Z,15.3
2023-09-02T03:13:05.510Z,15.3
2023-09-02T03:14:21.787Z,15.3
2023-09-02T03:15:38.078Z,15.3
2023-09-02T03:16:54.386Z,15.3
2023-09-02T03:18:10.665Z,15.3
2023-09-02T03:19:26.959Z,15.3
2023-09-02T03:20:43.396Z,15.3
2023-09-02T03:21:59.700Z,15.4
2023-09-02T03:23:15.980Z,15.3
2023-09-02T03:24:32.253Z,15.3
2023-09-02T03:25:48.570Z,15.3
2023-09-02T03:27:04.840Z,15.3
2023-09-02T03:28:21.164Z,15.3
2023-09-02T03:29:37.440Z,15.3
2023-09-02T03:30:53.730Z,15.3
2023-09-02T03:32:10.017Z,15.3
2023-09-02T03:33:26.320Z,15.3
2023-09-02T03:34:42.604Z,15.2
2023-09-02T03:35:58.897Z,15.2
2023-09-02T03:37:14.224Z,15.2
2023-09-02T03:38:30.521Z,15.2
2023-09-02T03:39:46.823Z,15.2
2023-09-02T03:41:03.111Z,15.2
2023-09-02T03:42:19.397Z,15.2
2023-09-02T03:43:35.702Z,15.2
2023-09-02T03:44:51.988Z,15.2
2023-09-02T03:46:08.295Z,15.2
2023-09-02T03:47:24.585Z,15.2
2023-09-02T03:48:40.884Z,15.2
2023-09-02T03:49:57.152Z,15.2
2023-09-02T03:51:13.444Z,15.2
2023-09-02T03:52:29.738Z,15.2
2023-09-02T03:53:46.153Z,15.2
2023-09-02T03:55:02.391Z,15.2
2023-09-02T03:56:18.687Z,15.2
2023-09-02T03:57:34.982Z,15.2
2023-09-02T03:58:51.268Z,15.3
2023-09-02T04:00:06.504Z,15.3
2023-09-02T04:01:22.758Z,15.3
2023-09-02T04:02:38.975Z,15.3
2023-09-02T04:03:55.254Z,15.3
2023-09-02T04:05:11.466Z,15.3
2023-09-02T04:06:27.743Z,15.2
2023-09-02T04:07:43.975Z,15.3
2023-09-02T04:09:00.198Z,15.3
2023-09-02T04:10:16.456Z,15.3
2023-09-02T04:11:32.685Z,15.3
2023-09-02T04:12:48.928Z,15.4
2023-09-02T04:14:05.184Z,15.4
2023-09-02T04:15:21.414Z,15.4
2023-09-02T04:16:36.653Z,15.4
2023-09-02T04:17:52.924Z,15.4
2023-09-02T04:19:09.154Z,15.4
2023-09-02T04:20:25.375Z,15.4
2023-09-02T04:21:41.638Z,15.4
2023-09-02T04:22:57.877Z,15.4
2023-09-02T04:24:14.092Z,15.4
2023-09-02T04:25:30.341Z,15.4
2023-09-02T04:26:46.593Z,15.4
2023-09-02T04:28:02.828Z,15.4
2023-09-02T04:29:19.083Z,15.4
2023-09-02T04:30:35.298Z,15.5
2023-09-02T04:31:51.569Z,15.5
2023-09-02T04:33:06.792Z,15.5
2023-09-02T04:34:23.059Z,15.5
2023-09-02T04:35:39.274Z,15.5
2023-09-02T04:36:55.513Z,15.6
2023-09-02T04:38:11.751Z,15.6
2023-09-02T04:39:28.011Z,15.6
2023-09-02T04:40:44.226Z,15.6
2023-09-02T04:42:00.496Z,15.6
2023-09-02T04:43:16.718Z,15.6
2023-09-02T04:44:32.973Z,15.7
2023-09-02T04:45:49.202Z,15.6
2023-09-02T04:47:05.461Z,15.6
2023-09-02T04:48:21.677Z,15.6
2023-09-02T04:49:36.927Z,15.7
2023-09-02T04:50:53.182Z,15.7
2023-09-02T04:52:09.437Z,15.7
2023-09-02T04:53:25.663Z,15.7
2023-09-02T04:54:41.922Z,15.7
2023-09-02T04:55:58.157Z,15.7
2023-09-02T04:57:14.368Z,15.7
2023-09-02T04:58:30.612Z,15.8
2023-09-02T04:59:46.850Z,15.8
2023-09-02T05:01:03.094Z,15.8
2023-09-02T05:02:19.347Z,15.8
2023-09-02T05:03:35.572Z,15.8
2023-09-02T05:04:51.831Z,15.8
2023-09-02T05:06:07.060Z,15.8
2023-09-02T05:07:23.307Z,15.9
2023-09-02T05:08:39.557Z,15.9
2023-09-02T05:09:55.812Z,16
2023-09-02T05:11:12.046Z,16
2023-09-02T05:12:28.285Z,16
2023-09-02T05:13:44.500Z,16
2023-09-02T05:15:00.768Z,16.1
2023-09-02T05:16:16.984Z,16.1
2023-09-02T05:17:33.247Z,16.1
2023-09-02T05:18:49.467Z,16.1
2023-09-02T05:20:05.724Z,16.1
2023-09-02T05:21:21.943Z,16.1
2023-09-02T05:22:37.207Z,16.2
2023-09-02T05:23:53.443Z,16.1
2023-09-02T05:25:09.679Z,16.1
2023-09-02T05:26:25.952Z,16.2
2023-09-02T05:27:42.158Z,16.1
2023-09-02T05:28:58.406Z,16.2
2023-09-02T05:30:14.667Z,16.2
2023-09-02T05:31:30.894Z,16.2
2023-09-02T05:32:47.126Z,16.3
2023-09-02T05:34:03.356Z,16.3
2023-09-02T05:35:19.622Z,16.3
2023-09-02T05:36:35.868Z,16.3
2023-09-02T05:37:52.087Z,16.3
2023-09-02T05:39:07.336Z,16.3
2023-09-02T05:40:23.589Z,16.4
2023-09-02T05:41:39.847Z,16.4
2023-09-02T05:42:56.086Z,16.3
2023-09-02T05:44:12.303Z,16.3
2023-09-02T05:45:28.559Z,16.3
2023-09-02T05:46:44.808Z,16.4
2023-09-02T05:48:01.017Z,16.4
2023-09-02T05:49:17.277Z,16.3
2023-09-02T05:50:33.496Z,16.4
2023-09-02T05:51:49.735Z,16.4
2023-09-02T05:53:05.977Z,16.5
2023-09-02T05:54:22.218Z,16.5
2023-09-02T05:55:38.579Z,16.6
2023-09-02T05:56:54.850Z,16.5
2023-09-02T05:58:11.081Z,16.5
2023-09-02T05:59:27.300Z,16.5
2023-09-02T06:00:43.547Z,16.6
2023-09-02T06:01:59.790Z,16.5
2023-09-02T06:03:16.041Z,16.5
2023-09-02T06:04:32.257Z,16.5
2023-09-02T06:05:48.532Z,16.6
2023-09-02T06:07:04.749Z,16.5
2023-09-02T06:08:20.979Z,16.6
2023-09-02T06:09:37.221Z,16.6
2023-09-02T06:10:53.457Z,16.6
2023-09-02T06:12:08.743Z,16.6
2023-09-02T06:13:24.960Z,16.6
2023-09-02T06:14:41.199Z,16.5
2023-09-02T06:15:57.429Z,16.6
2023-09-02T06:17:13.685Z,16.6
2023-09-02T06:18:29.913Z,16.6
2023-09-02T06:19:46.163Z,16.6
2023-09-02T06:21:02.409Z,16.6
2023-09-02T06:22:18.641Z,16.6
2023-09-02T06:23:34.896Z,16.6
2023-09-02T06:24:51.114Z,16.7
2023-09-02T06:26:07.388Z,16.7
2023-09-02T06:27:23.592Z,16.7
2023-09-02T06:28:38.885Z,16.7
2023-09-02T06:29:55.095Z,16.7
2023-09-02T06:31:11.354Z,16.8
2023-09-02T06:32:27.567Z,16.8
2023-09-02T06:33:43.813Z,16.8
2023-09-02T06:35:00.081Z,16.9
2023-09-02T06:36:16.288Z,16.9
2023-09-02T06:37:32.542Z,17
2023-09-02T06:38:48.774Z,17
2023-09-02T06:40:05.023Z,17
2023-09-02T06:41:21.281Z,17
2023-09-02T06:42:37.515Z,17
2023-09-02T06:43:53.726Z,17
2023-09-02T06:45:08.990Z,17.1
2023-09-02T06:46:25.234Z,17.1
2023-09-02T06:47:41.463Z,17
2023-09-02T06:48:57.712Z,17
2023-09-02T06:50:13.972Z,17
2023-09-02T06:51:30.218Z,17
2023-09-02T06:52:46.422Z,17
2023-09-02T06:54:02.666Z,16.9
2023-09-02T06:55:18.917Z,17
2023-09-02T06:56:35.181Z,17
2023-09-02T06:57:51.400Z,17
2023-09-02T06:59:07.624Z,17
2023-09-02T07:00:23.873Z,17
2023-09-02T07:01:39.149Z,17
2023-09-02T07:02:55.358Z,17.1
2023-09-02T07:04:11.633Z,17.1
2023-09-02T07:05:27.870Z,17.1
2023-09-02T07:06:44.105Z,17
2023-09-02T07:08:00.318Z,17
2023-09-02T07:09:16.592Z,17
2023-09-02T07:10:32.812Z,17
2023-09-02T07:11:49.042Z,17
2023-09-02T07:13:05.316Z,17
2023-09-02T07:14:21.528Z,17.1
2023-09-02T07:15:37.772Z,17.1
2023-09-02T07:16:54.013Z,17.1
2023-09-02T07:18:09.283Z,17.2
2023-09-02T07:19:25.522Z,17.1
2023-09-02T07:20:41.738Z,17.2
2023-09-02T07:21:58.012Z,17.1
2023-09-02T07:23:14.229Z,17.2
2023-09-02T07:24:30.499Z,17.2
2023-09-02T07:25:46.693Z,17.3
2023-09-02T07:27:02.945Z,17.2
2023-09-02T07:28:19.183Z,17.2
2023-09-02T07:29:35.442Z,17.2
2023-09-02T07:30:51.656Z,17.2
2023-09-02T07:32:07.900Z,17.2
2023-09-02T07:33:24.138Z,17.2
2023-09-02T07:34:39.407Z,17.2
2023-09-02T07:35:55.639Z,17.2
2023-09-02T07:37:11.872Z,17.2
2023-09-02T07:38:28.115Z,17.2
2023-09-02T07:39:44.355Z,17.2
2023-09-02T07:41:00.593Z,17.2
2023-09-02T07:42:16.867Z,17.3
2023-09-02T07:43:33.073Z,17.4
2023-09-02T07:44:49.316Z,17.5
2023-09-02T07:46:05.554Z,17.6
2023-09-02T07:47:21.799Z,17.6
2023-09-02T07:48:38.039Z,17.7
2023-09-02T07:49:54.278Z,17.8
2023-09-02T07:51:09.539Z,17.8
2023-09-02T07:52:25.779Z,17.9
2023-09-02T07:53:42.006Z,17.9
2023-09-02T07:54:58.254Z,17.9
2023-09-02T07:56:14.499Z,17.9
2023-09-02T07:57:30.737Z,17.9
2023-09-02T07:58:46.979Z,17.9
2023-09-02T08:00:03.218Z,18
2023-09-02T08:02:35.688Z,18
2023-09-02T08:03:51.929Z,18
2023-09-02T08:05:08.171Z,18
2023-09-02T08:06:24.419Z,18
2023-09-02T08:07:39.675Z,18
2023-09-02T08:08:55.902Z,18
2023-09-02T08:10:12.156Z,18.1
2023-09-02T08:11:28.393Z,18.1
2023-09-02T08:12:44.633Z,18.1
2023-09-02T08:14:00.875Z,18.1
2023-09-02T08:15:17.103Z,18.1
2023-09-02T08:16:32.364Z,18.1
2023-09-02T08:17:48.619Z,18
2023-09-02T08:19:04.858Z,18
2023-09-02T08:20:21.083Z,18
2023-09-02T08:21:37.333Z,18
2023-09-02T08:22:53.573Z,18
2023-09-02T08:24:09.818Z,18
2023-09-02T08:25:26.053Z,18
2023-09-02T08:26:42.280Z,18
2023-09-02T08:27:58.529Z,18
2023-09-02T08:29:14.778Z,18.1
2023-09-02T08:30:31.016Z,18
2023-09-02T08:31:47.249Z,18
2023-09-02T08:33:02.504Z,18
2023-09-02T08:34:18.744Z,18.1
2023-09-02T08:35:34.993Z,18.2
2023-09-02T08:36:51.222Z,18.2
2023-09-02T08:38:07.460Z,18.2
2023-09-02T08:39:23.702Z,18.2
2023-09-02T08:40:39.951Z,18.2
2023-09-02T08:41:56.185Z,18.2
2023-09-02T08:43:12.423Z,18.3
2023-09-02T08:44:28.674Z,18.3
2023-09-02T08:45:44.910Z,18.4
2023-09-02T08:47:01.000Z,18.4
2023-09-02T08:48:17.376Z,18.5
2023-09-02T08:49:32.634Z,18.6
2023-09-02T08:50:48.870Z,18.6
2023-09-02T08:52:05.128Z,18.7
2023-09-02T08:53:21.359Z,18.8
2023-09-02T08:54:37.603Z,18.9
2023-09-02T08:55:53.839Z,19
2023-09-02T08:57:10.081Z,19.1
2023-09-02T08:58:26.313Z,19.2
2023-09-02T08:59:42.563Z,19.3
2023-09-02T09:00:58.806Z,19.3
2023-09-02T09:02:15.035Z,19.3
2023-09-02T09:03:31.272Z,19.3
2023-09-02T09:04:47.512Z,19.4
2023-09-02T09:06:02.785Z,19.5
2023-09-02T09:07:19.025Z,19.6
2023-09-02T09:08:35.264Z,19.8
2023-09-02T09:09:51.505Z,20
2023-09-02T09:11:07.727Z,20.1
2023-09-02T09:12:23.964Z,20.2
2023-09-02T09:13:40.207Z,20.3
2023-09-02T09:14:56.458Z,20.5
2023-09-02T09:16:12.702Z,20.6
2023-09-02T09:17:28.941Z,20.5
2023-09-02T09:18:45.166Z,20.4
2023-09-02T09:20:01.420Z,20.6
2023-09-02T09:21:17.643Z,20.8
2023-09-02T09:22:32.899Z,20.8
2023-09-02T09:23:49.146Z,20.8
2023-09-02T09:25:05.396Z,20.8
2023-09-02T09:26:21.623Z,20.9
2023-09-02T09:27:37.877Z,21.1
2023-09-02T09:28:54.147Z,21.3
2023-09-02T09:30:10.343Z,21.4
2023-09-02T09:31:26.622Z,21.5
2023-09-02T09:32:42.838Z,21.5
2023-09-02T09:33:59.063Z,21.7
2023-09-02T09:35:15.316Z,21.8
2023-09-02T09:36:31.548Z,21.5
2023-09-02T09:37:47.796Z,21.4
2023-09-02T09:39:03.035Z,21.4
2023-09-02T09:40:19.283Z,21.5
2023-09-02T09:41:35.524Z,21.5
2023-09-02T09:42:51.769Z,21.6
2023-09-02T09:44:07.996Z,21.5
2023-09-02T09:45:24.237Z,21.5
2023-09-02T09:46:40.476Z,21.6
2023-09-02T09:47:56.721Z,21.5
2023-09-02T09:49:12.969Z,21.5
2023-09-02T09:50:29.197Z,21.3
2023-09-02T09:51:45.445Z,21.1
2023-09-02T09:53:01.680Z,21.1
2023-09-02T09:54:17.918Z,21.3
2023-09-02T09:55:33.182Z,21.4
2023-09-02T09:56:49.418Z,21.5
2023-09-02T09:58:05.663Z,21.5
2023-09-02T09:59:21.903Z,21.4
2023-09-02T10:00:38.145Z,21.2
2023-09-02T10:01:54.373Z,21.2
2023-09-02T10:03:10.614Z,21.1
2023-09-02T10:04:26.863Z,21.3
2023-09-02T10:05:43.100Z,21.4
2023-09-02T10:06:59.369Z,21.5
2023-09-02T10:08:15.582Z,21.7
2023-09-02T10:09:31.825Z,21.8
2023-09-02T10:10:48.067Z,22
2023-09-02T10:12:03.354Z,21.9
2023-09-02T10:13:19.553Z,21.8
2023-09-02T10:14:35.830Z,21.9
2023-09-02T10:15:52.026Z,22
2023-09-02T10:17:08.270Z,22
2023-09-02T10:18:24.518Z,21.9
2023-09-02T10:19:40.755Z,21.9
2023-09-02T10:20:56.994Z,21.8
2023-09-02T10:22:13.244Z,21.5
2023-09-02T10:23:29.472Z,21.3
2023-09-02T10:24:45.718Z,21.3
2023-09-02T10:26:01.959Z,21.4
2023-09-02T10:27:18.190Z,21.5
2023-09-02T10:28:34.548Z,21.6
2023-09-02T10:29:50.807Z,21.5
2023-09-02T10:31:07.033Z,21.4
2023-09-02T10:32:23.267Z,21.5
2023-09-02T10:33:39.521Z,21.6
2023-09-02T10:34:55.749Z,21.6
2023-09-02T10:36:11.987Z,21.6
2023-09-02T10:37:28.278Z,21.6
2023-09-02T10:38:44.476Z,21.6
2023-09-02T10:40:00.717Z,21.7
2023-09-02T10:41:16.962Z,21.7
2023-09-02T10:42:33.203Z,21.8
2023-09-02T10:43:49.428Z,21.8
2023-09-02T10:45:04.704Z,21.9
2023-09-02T10:46:20.941Z,22
2023-09-02T10:47:37.163Z,22
2023-09-02T10:48:53.408Z,22
2023-09-02T10:50:09.646Z,22
2023-09-02T10:51:25.000Z,21.9
2023-09-02T10:52:42.132Z,21.9
2023-09-02T10:53:58.381Z,21.8
2023-09-02T10:55:14.609Z,21.6
2023-09-02T10:56:30.851Z,21.5
2023-09-02T10:57:47.104Z,21.4
2023-09-02T10:59:03.337Z,21.4
2023-09-02T11:00:19.582Z,21.4
2023-09-02T11:01:34.837Z,21.4
2023-09-02T11:02:51.067Z,21.5
2023-09-02T11:04:07.305Z,21.7
2023-09-02T11:05:23.554Z,21.9
2023-09-02T11:06:39.779Z,22.1
2023-09-02T11:07:56.023Z,22.1
2023-09-02T11:09:12.310Z,22.1
2023-09-02T11:11:44.744Z,22
2023-09-02T11:13:00.980Z,22
2023-09-02T11:14:17.231Z,22
2023-09-02T11:15:33.461Z,21.9
2023-09-02T11:16:49.742Z,22
2023-09-02T11:18:06.072Z,22
2023-09-02T11:19:22.312Z,21.8
2023-09-02T11:20:38.545Z,21.7
2023-09-02T11:21:54.783Z,21.7
2023-09-02T11:23:11.035Z,21.8
2023-09-02T11:24:27.276Z,21.8
2023-09-02T11:25:43.511Z,21.8
2023-09-02T11:26:59.747Z,21.8
2023-09-02T11:28:15.987Z,21.7
2023-09-02T11:29:32.228Z,21.7
2023-09-02T11:30:48.471Z,21.6
2023-09-02T11:32:04.751Z,21.6
2023-09-02T11:33:20.941Z,21.6
2023-09-02T11:34:36.201Z,21.7
2023-09-02T11:35:52.449Z,21.8
2023-09-02T11:37:08.697Z,21.8
2023-09-02T11:38:24.931Z,22
2023-09-02T11:39:41.166Z,22
2023-09-02T11:40:57.409Z,22
2023-09-02T11:42:13.657Z,22
2023-09-02T11:43:29.878Z,22
2023-09-02T11:44:46.117Z,22.1
2023-09-02T11:46:02.375Z,22.1
2023-09-02T11:47:18.611Z,22.1
2023-09-02T11:48:34.892Z,22.1
2023-09-02T11:49:51.079Z,22
2023-09-02T11:51:07.450Z,22
2023-09-02T11:52:23.732Z,22
2023-09-02T11:53:39.970Z,22.1
2023-09-02T11:54:56.162Z,22.2
2023-09-02T11:56:12.403Z,22.2
2023-09-02T11:57:28.641Z,22.1
2023-09-02T11:58:44.885Z,22.1
2023-09-02T12:00:01.124Z,22
2023-09-02T12:01:17.358Z,22
2023-09-02T12:02:33.614Z,22
2023-09-02T12:03:49.854Z,22
2023-09-02T12:05:06.094Z,22
2023-09-02T12:06:22.324Z,22
2023-09-02T12:07:37.000Z,21.9
2023-09-02T12:08:53.829Z,21.9
2023-09-02T12:10:10.066Z,21.9
2023-09-02T12:11:26.309Z,21.8
2023-09-02T12:12:42.539Z,21.9
2023-09-02T12:13:58.786Z,21.9
2023-09-02T12:15:15.022Z,21.8
2023-09-02T12:16:31.268Z,21.8
2023-09-02T12:17:47.514Z,21.8
2023-09-02T12:19:03.752Z,21.8
2023-09-02T12:20:19.977Z,21.8
2023-09-02T12:21:36.215Z,21.8
2023-09-02T12:22:52.463Z,21.8
2023-09-02T12:24:07.729Z,21.8
2023-09-02T12:25:23.959Z,21.7
2023-09-02T12:26:40.192Z,21.7
2023-09-02T12:27:56.440Z,21.8
2023-09-02T12:29:12.679Z,21.8
2023-09-02T12:30:28.927Z,21.8
2023-09-02T12:31:44.215Z,21.7
2023-09-02T12:33:00.411Z,21.7
2023-09-02T12:34:16.657Z,21.7
2023-09-02T12:35:32.905Z,21.8
2023-09-02T12:36:49.147Z,21.8
2023-09-02T12:38:05.390Z,21.9
2023-09-02T12:39:21.612Z,21.9
2023-09-02T12:40:37.899Z,21.9
2023-09-02T12:41:54.097Z,21.9
2023-09-02T12:43:10.346Z,21.9
2023-09-02T12:44:26.589Z,21.9
2023-09-02T12:45:42.822Z,21.8
2023-09-02T12:46:59.055Z,21.9
2023-09-02T12:48:14.317Z,22
2023-09-02T12:49:30.561Z,22
2023-09-02T12:50:46.799Z,22
2023-09-02T12:52:03.078Z,22
2023-09-02T12:53:19.326Z,21.9
2023-09-02T12:54:35.511Z,21.9
2023-09-02T12:55:51.747Z,21.9
2023-09-02T12:57:07.990Z,21.8
2023-09-02T12:58:24.246Z,21.8
2023-09-02T12:59:40.482Z,21.8
2023-09-02T13:00:56.705Z,21.8
2023-09-02T13:02:12.966Z,21.9
2023-09-02T13:03:29.198Z,21.9
2023-09-02T13:04:44.441Z,22
2023-09-02T13:06:00.701Z,22
2023-09-02T13:07:16.929Z,22
2023-09-02T13:08:33.167Z,21.9
2023-09-02T13:09:49.446Z,21.9
2023-09-02T13:11:05.662Z,21.8
2023-09-02T13:12:21.890Z,21.8
2023-09-02T13:13:38.139Z,21.8
2023-09-02T13:14:54.373Z,21.7
2023-09-02T13:17:26.850Z,21.7
2023-09-02T13:18:43.091Z,21.7
2023-09-02T13:19:59.335Z,21.8
2023-09-02T13:21:14.598Z,21.8
2023-09-02T13:22:30.817Z,21.8
2023-09-02T13:23:47.073Z,21.7
2023-09-02T13:25:03.302Z,21.7
2023-09-02T13:26:19.538Z,21.7
2023-09-02T13:27:35.798Z,21.7
2023-09-02T13:28:52.038Z,21.8
2023-09-02T13:30:08.256Z,21.8
2023-09-02T13:31:24.505Z,21.8
2023-09-02T13:32:40.748Z,21.8
2023-09-02T13:33:56.985Z,21.9
2023-09-02T13:35:13.229Z,22
2023-09-02T13:36:29.466Z,22
2023-09-02T13:37:44.729Z,21.9
2023-09-02T13:39:00.954Z,21.9
2023-09-02T13:40:17.213Z,21.9
2023-09-02T13:41:33.433Z,22
2023-09-02T13:42:49.725Z,22
2023-09-02T13:44:05.931Z,22
2023-09-02T13:45:22.163Z,22
2023-09-02T13:46:38.406Z,22.1
2023-09-02T13:47:54.647Z,22.1
2023-09-02T13:49:10.886Z,22.1
2023-09-02T13:50:27.114Z,22.1
2023-09-02T13:51:43.365Z,22.1
2023-09-02T13:52:59.608Z,22
2023-09-02T13:54:14.865Z,22
2023-09-02T13:55:31.105Z,22.1
2023-09-02T13:56:47.342Z,22.1
2023-09-02T13:58:03.579Z,22.1
2023-09-02T13:59:19.816Z,22.2
2023-09-02T14:00:36.069Z,22.2
2023-09-02T14:01:52.302Z,22.2
2023-09-02T14:03:08.549Z,22.2
2023-09-02T14:04:24.785Z,22.2
2023-09-02T14:05:41.013Z,22.1
2023-09-02T14:06:57.269Z,22.1
2023-09-02T14:08:13.500Z,22.2
2023-09-02T14:09:29.735Z,22.1
2023-09-02T14:10:44.991Z,22.1
2023-09-02T14:12:01.235Z,22.1
2023-09-02T14:13:17.477Z,22
2023-09-02T14:14:33.712Z,21.9
2023-09-02T14:15:49.953Z,21.9
2023-09-02T14:17:06.192Z,21.9
2023-09-02T14:18:22.432Z,22
2023-09-02T14:19:38.664Z,22
2023-09-02T14:20:54.919Z,22
2023-09-02T14:23:27.390Z,22
2023-09-02T14:24:43.636Z,22
2023-09-02T14:25:59.879Z,22
2023-09-02T14:27:15.137Z,22
2023-09-02T14:28:31.367Z,22.1
2023-09-02T14:29:47.613Z,22
2023-09-02T14:31:03.855Z,22
2023-09-02T14:32:20.101Z,22
2023-09-02T14:33:36.326Z,21.9
2023-09-02T14:34:52.579Z,21.9
2023-09-02T14:36:08.811Z,21.9
2023-09-02T14:37:25.050Z,21.9
2023-09-02T14:38:41.288Z,21.8
2023-09-02T14:39:57.538Z,21.8
2023-09-02T14:41:13.772Z,21.9
2023-09-02T14:42:30.000Z,21.9
2023-09-02T14:43:45.268Z,22
2023-09-02T14:45:01.514Z,21.9
2023-09-02T14:46:17.751Z,21.9
2023-09-02T14:47:33.987Z,21.9
2023-09-02T14:48:50.228Z,21.9
2023-09-02T14:50:06.478Z,21.9
2023-09-02T14:51:22.706Z,21.9
2023-09-02T14:52:38.954Z,21.9
2023-09-02T14:53:55.191Z,21.9
2023-09-02T14:55:11.483Z,21.9
2023-09-02T14:56:27.677Z,21.9
2023-09-02T14:57:43.900Z,21.8
2023-09-02T14:59:00.155Z,21.8
2023-09-02T15:00:15.405Z,21.7
2023-09-02T15:01:31.635Z,21.7
2023-09-02T15:02:47.893Z,21.7
2023-09-02T15:04:04.115Z,21.7
2023-09-02T15:05:20.369Z,21.7
2023-09-02T15:06:36.605Z,21.7
2023-09-02T15:07:52.837Z,21.7
2023-09-02T15:09:09.086Z,21.7
2023-09-02T15:10:25.313Z,21.7
2023-09-02T15:11:41.560Z,21.6
2023-09-02T15:12:57.800Z,21.6
2023-09-02T15:14:14.036Z,21.6
2023-09-02T15:15:30.293Z,21.6
2023-09-02T15:16:45.542Z,21.6
2023-09-02T15:18:01.773Z,21.6
2023-09-02T15:19:18.029Z,21.6
2023-09-02T15:20:34.263Z,21.6
2023-09-02T15:21:50.490Z,21.6
2023-09-02T15:23:06.742Z,21.7
2023-09-02T15:25:39.215Z,21.7
2023-09-02T15:26:55.462Z,21.7
2023-09-02T15:28:11.692Z,21.7
2023-09-02T15:29:27.937Z,21.6
2023-09-02T15:30:44.177Z,21.6
2023-09-02T15:32:00.418Z,21.6
2023-09-02T15:33:15.668Z,21.6
2023-09-02T15:34:31.924Z,21.6
2023-09-02T15:35:48.166Z,21.6
2023-09-02T15:37:04.389Z,21.6
2023-09-02T15:38:20.632Z,21.6
2023-09-02T15:39:36.870Z,21.6
2023-09-02T15:40:53.173Z,21.6
2023-09-02T15:42:09.355Z,21.6
2023-09-02T15:43:25.639Z,21.6
2023-09-02T15:44:41.841Z,21.6
2023-09-02T15:45:58.073Z,21.6
2023-09-02T15:47:14.322Z,21.7
2023-09-02T15:48:30.556Z,21.8
2023-09-02T15:49:45.813Z,21.8
2023-09-02T15:51:02.048Z,21.9
2023-09-02T15:52:18.282Z,21.9
2023-09-02T15:53:34.536Z,22
2023-09-02T15:54:50.760Z,21.9
2023-09-02T15:56:07.008Z,22
2023-09-02T15:57:23.257Z,21.9
2023-09-02T15:58:39.487Z,21.9
2023-09-02T15:59:55.726Z,22
2023-09-02T16:01:11.975Z,21.9
2023-09-02T16:02:28.200Z,21.9
2023-09-02T16:03:44.442Z,21.9
2023-09-02T16:05:00.691Z,21.9
2023-09-02T16:06:15.941Z,21.8
2023-09-02T16:07:32.235Z,21.8
2023-09-02T16:08:48.429Z,21.8
2023-09-02T16:10:04.661Z,21.8
2023-09-02T16:12:37.137Z,21.8
2023-09-02T16:13:53.389Z,21.8
2023-09-02T16:15:09.622Z,21.8
2023-09-02T16:17:42.106Z,21.8
2023-09-02T16:18:58.354Z,21.8
2023-09-02T16:20:14.580Z,21.8
2023-09-02T16:22:47.121Z,21.8
2023-09-02T16:24:02.328Z,21.8
2023-09-02T16:25:17.576Z,21.7
2023-09-02T16:26:33.810Z,21.7
2023-09-02T16:27:50.058Z,21.7
2023-09-02T16:29:06.306Z,21.7
2023-09-02T16:30:22.538Z,21.8
2023-09-02T16:31:38.775Z,21.7
2023-09-02T16:32:55.019Z,21.7
2023-09-02T16:34:11.257Z,21.7
2023-09-02T16:35:27.492Z,21.7
2023-09-02T16:36:42.761Z,21.7
2023-09-02T16:37:58.011Z,21.7
2023-09-02T16:39:14.260Z,21.6
2023-09-02T16:40:30.492Z,21.6
2023-09-02T16:41:46.732Z,21.6
2023-09-02T16:43:02.974Z,21.6
2023-09-02T16:44:19.213Z,21.6
2023-09-02T16:45:35.466Z,21.6
2023-09-02T16:46:50.722Z,21.6
2023-09-02T16:48:06.962Z,21.5
2023-09-02T16:49:23.193Z,21.5
2023-09-02T16:50:39.435Z,21.5
2023-09-02T16:51:55.680Z,21.5
2023-09-02T16:53:11.912Z,21.5
2023-09-02T16:54:28.147Z,21.5
2023-09-02T16:55:44.404Z,21.4
2023-09-02T16:57:00.000Z,21.4
2023-09-02T16:58:16.880Z,21.4
2023-09-02T16:59:33.110Z,21.3
2023-09-02T17:00:49.356Z,21.3
2023-09-02T17:02:05.593Z,21.3
2023-09-02T17:03:20.845Z,21.3
2023-09-02T17:04:37.095Z,21.3
2023-09-02T17:05:53.327Z,21.3
2023-09-02T17:07:09.581Z,21.3
2023-09-02T17:08:25.821Z,21.3
2023-09-02T17:09:42.055Z,21.2
2023-09-02T17:10:58.287Z,21.2
2023-09-02T17:12:14.538Z,21.1
2023-09-02T17:13:30.778Z,21.1
2023-09-02T17:14:47.012Z,21.1
2023-09-02T17:16:03.245Z,21.1
2023-09-02T17:17:19.493Z,21.1
2023-09-02T17:18:35.735Z,21.1